createdAt,value
2022-09-12T00:01:15.571Z,99.90
2022-09-12T00:03:43.881Z,99.90
2022-09-12T00:06:21.856Z,99.90
2022-09-12T00:08:50.471Z,99.90
2022-09-12T00:11:19.517Z,99.90
2022-09-12T00:13:46.742Z,99.90
2022-09-12T00:16:19.638Z,99.90
2022-09-12T00:18:47.252Z,99.90
2022-09-12T00:21:15.895Z,99.90
2022-09-12T00:23:43.291Z,99.90
2022-09-12T00:26:10.291Z,99.90
2022-09-12T00:28:38.729Z,99.90
2022-09-12T00:31:13.790Z,99.90
2022-09-12T00:33:41.811Z,99.90
2022-09-12T00:36:15.510Z,99.90
2022-09-12T00:38:43.551Z,99.90
2022-09-12T00:41:27.197Z,99.90
2022-09-12T00:43:56.635Z,99.90
2022-09-12T00:46:50.469Z,99.90
2022-09-12T00:49:23.945Z,99.90
2022-09-12T00:52:11.219Z,99.90
2022-09-12T00:54:49.966Z,99.90
2022-09-12T00:57:17.823Z,99.90
2022-09-12T00:59:50.489Z,99.90
2022-09-12T01:02:17.750Z,99.90
2022-09-12T01:04:45.007Z,99.90
2022-09-12T01:07:12.711Z,99.90
2022-09-12T01:09:40.766Z,99.90
2022-09-12T01:12:08.370Z,99.90
2022-09-12T01:14:35.730Z,99.90
2022-09-12T01:17:02.569Z,99.90
2022-09-12T01:19:52.688Z,99.90
2022-09-12T01:22:50.527Z,99.90
2022-09-12T01:25:47.475Z,99.90
2022-09-12T01:28:27.623Z,99.90
2022-09-12T01:31:18.169Z,99.90
2022-09-12T01:33:58.583Z,99.90
2022-09-12T01:36:36.513Z,99.90
2022-09-12T01:39:17.211Z,99.90
2022-09-12T01:41:59.511Z,99.90
2022-09-12T01:44:53.871Z,99.90
2022-09-12T01:47:59.124Z,99.90
2022-09-12T01:50:33.158Z,99.90
2022-09-12T01:53:22.210Z,99.90
2022-09-12T01:56:00.033Z,99.90
2022-09-12T01:58:38.128Z,99.90
2022-09-12T02:01:16.591Z,99.90
2022-09-12T02:03:49.859Z,99.90
2022-09-12T02:06:30.329Z,99.90
2022-09-12T02:09:07.651Z,99.90
2022-09-12T02:11:38.540Z,99.90
2022-09-12T02:14:21.705Z,99.90
2022-09-12T02:17:07.370Z,99.90
2022-09-12T02:19:39.884Z,99.90
2022-09-12T02:22:07.855Z,99.90
2022-09-12T02:24:41.269Z,99.90
2022-09-12T02:27:24.073Z,99.90
2022-09-12T02:29:51.746Z,99.90
2022-09-12T02:32:36.375Z,99.90
2022-09-12T02:35:22.432Z,99.90
2022-09-12T02:38:07.572Z,99.90
2022-09-12T02:40:35.905Z,99.90
2022-09-12T02:43:11.560Z,99.90
2022-09-12T02:45:38.673Z,99.90
2022-09-12T02:48:13.739Z,99.90
2022-09-12T02:50:41.652Z,99.90
2022-09-12T02:53:09.621Z,99.90
2022-09-12T02:55:38.680Z,99.90
2022-09-12T02:58:09.650Z,99.90
2022-09-12T03:00:47.657Z,99.90
2022-09-12T03:03:29.841Z,99.90
2022-09-12T03:06:00.875Z,99.90
2022-09-12T03:08:40.311Z,99.90
2022-09-12T03:11:31.842Z,99.90
2022-09-12T03:14:37.767Z,99.90
2022-09-12T03:17:32.813Z,99.90
2022-09-12T03:20:36.300Z,99.90
2022-09-12T03:23:21.807Z,99.90
2022-09-12T03:26:06.515Z,99.90
2022-09-12T03:28:35.676Z,99.90
2022-09-12T03:31:15.541Z,99.90
2022-09-12T03:33:42.863Z,99.90
2022-09-12T03:36:26.326Z,99.90
2022-09-12T03:38:53.600Z,99.90
2022-09-12T03:41:20.818Z,99.90
2022-09-12T03:43:47.734Z,99.90
2022-09-12T03:46:14.750Z,99.90
2022-09-12T03:48:41.804Z,99.90
2022-09-12T03:51:10.516Z,99.90
2022-09-12T03:53:37.816Z,99.90
2022-09-12T03:56:09.780Z,99.90
2022-09-12T03:58:37.532Z,99.90
2022-09-12T04:01:13.233Z,99.90
2022-09-12T04:03:43.043Z,99.90
2022-09-12T04:06:11.919Z,99.90
2022-09-12T04:08:38.750Z,99.90
2022-09-12T04:11:07.745Z,99.90
2022-09-12T04:13:35.257Z,99.90
2022-09-12T04:16:02.732Z,99.90
2022-09-12T04:18:29.450Z,99.90
2022-09-12T04:20:56.436Z,99.90
2022-09-12T04:23:23.427Z,99.90
2022-09-12T04:26:01.137Z,99.90
2022-09-12T04:28:29.467Z,99.90
2022-09-12T04:30:56.483Z,99.90
2022-09-12T04:33:24.404Z,99.90
2022-09-12T04:35:51.365Z,99.90
2022-09-12T04:38:18.143Z,99.90
2022-09-12T04:40:45.312Z,99.90
2022-09-12T04:43:14.518Z,99.90
2022-09-12T04:45:41.975Z,99.90
2022-09-12T04:48:08.895Z,99.90
2022-09-12T04:50:35.655Z,99.90
2022-09-12T04:53:02.432Z,99.90
2022-09-12T04:55:29.431Z,99.90
2022-09-12T04:57:56.223Z,99.90
2022-09-12T05:00:23.046Z,99.90
2022-09-12T05:02:49.752Z,99.90
2022-09-12T05:05:17.508Z,99.90
2022-09-12T05:07:44.306Z,99.90
2022-09-12T05:10:12.626Z,99.90
2022-09-12T05:12:39.531Z,99.90
2022-09-12T05:15:07.130Z,99.90
2022-09-12T05:17:33.874Z,99.90
2022-09-12T05:20:00.651Z,99.90
2022-09-12T05:22:27.527Z,99.90
2022-09-12T05:24:54.339Z,99.90
2022-09-12T05:27:21.110Z,99.90
2022-09-12T05:29:48.091Z,99.90
2022-09-12T05:32:14.903Z,99.90
2022-09-12T05:34:41.775Z,99.90
2022-09-12T05:37:08.500Z,99.90
2022-09-12T05:39:35.208Z,99.90
2022-09-12T05:42:02.816Z,99.90
2022-09-12T05:44:29.836Z,99.90
2022-09-12T05:46:56.633Z,99.90
2022-09-12T05:49:23.473Z,99.90
2022-09-12T05:51:51.573Z,99.90
2022-09-12T05:54:20.343Z,99.90
2022-09-12T05:56:48.345Z,99.90
2022-09-12T05:59:22.016Z,99.90
2022-09-12T06:01:48.970Z,99.90
2022-09-12T06:04:16.040Z,99.90
2022-09-12T06:06:45.075Z,99.90
2022-09-12T06:09:14.108Z,99.90
2022-09-12T06:11:41.253Z,99.90
2022-09-12T06:14:10.225Z,99.90
2022-09-12T06:16:37.679Z,99.90
2022-09-12T06:19:17.232Z,99.90
2022-09-12T06:21:44.627Z,99.90
2022-09-12T06:24:11.695Z,99.90
2022-09-12T06:26:38.700Z,99.90
2022-09-12T06:29:06.063Z,99.90
2022-09-12T06:31:36.131Z,99.90
2022-09-12T06:34:06.077Z,99.90
2022-09-12T06:36:44.588Z,99.90
2022-09-12T06:39:21.041Z,99.90
2022-09-12T06:41:49.540Z,99.90
2022-09-12T06:44:19.658Z,99.90
2022-09-12T06:46:47.059Z,99.90
2022-09-12T06:49:14.599Z,99.90
2022-09-12T06:51:44.762Z,99.90
2022-09-12T06:54:16.988Z,99.90
2022-09-12T06:56:44.569Z,99.90
2022-09-12T06:59:11.719Z,99.90
2022-09-12T07:01:38.656Z,99.90
2022-09-12T07:04:05.827Z,99.90
2022-09-12T07:06:38.313Z,99.90
2022-09-12T07:09:07.607Z,99.90
2022-09-12T07:11:36.941Z,99.90
2022-09-12T07:14:06.306Z,99.90
2022-09-12T07:16:35.669Z,99.90
2022-09-12T07:19:04.185Z,99.90
2022-09-12T07:21:31.589Z,99.90
2022-09-12T07:23:58.805Z,99.90
2022-09-12T07:26:27.736Z,99.90
2022-09-12T07:29:07.842Z,99.90
2022-09-12T07:31:44.044Z,99.90
2022-09-12T07:34:11.199Z,99.90
2022-09-12T07:36:39.143Z,99.90
2022-09-12T07:39:06.036Z,99.90
2022-09-12T07:41:36.185Z,99.90
2022-09-12T07:44:04.131Z,99.90
2022-09-12T07:46:32.074Z,99.90
2022-09-12T07:49:00.559Z,99.90
2022-09-12T07:51:29.034Z,99.90
2022-09-12T07:53:56.609Z,99.90
2022-09-12T07:56:29.883Z,99.90
2022-09-12T07:58:58.715Z,99.90
2022-09-12T08:01:25.741Z,99.90
2022-09-12T08:03:58.347Z,99.90
2022-09-12T08:06:27.373Z,99.90
2022-09-12T08:08:56.317Z,99.90
2022-09-12T08:11:23.878Z,99.90
2022-09-12T08:13:55.303Z,99.90
2022-09-12T08:16:29.644Z,99.90
2022-09-12T08:18:57.140Z,99.90
2022-09-12T08:21:29.690Z,99.90
2022-09-12T08:24:05.004Z,99.90
2022-09-12T08:26:33.538Z,99.90
2022-09-12T08:29:01.236Z,99.90
2022-09-12T08:31:28.471Z,99.90
2022-09-12T08:33:56.863Z,99.90
2022-09-12T08:36:26.032Z,99.90
2022-09-12T08:39:02.899Z,99.90
2022-09-12T08:41:40.621Z,99.90
2022-09-12T08:44:31.508Z,99.90
2022-09-12T08:47:17.971Z,99.90
2022-09-12T08:50:07.582Z,99.90
2022-09-12T08:52:55.798Z,99.90
2022-09-12T08:55:40.055Z,99.90
2022-09-12T08:58:28.344Z,99.90
2022-09-12T09:01:23.527Z,99.90
2022-09-12T09:04:28.120Z,99.90
2022-09-12T09:07:07.187Z,99.90
2022-09-12T09:09:52.933Z,99.90
2022-09-12T09:12:40.623Z,99.90
2022-09-12T09:15:21.301Z,99.90
2022-09-12T09:18:13.306Z,99.90
2022-09-12T09:20:51.608Z,99.90
2022-09-12T09:23:38.851Z,99.90
2022-09-12T09:26:15.535Z,99.90
2022-09-12T09:28:52.763Z,99.90
2022-09-12T09:31:22.461Z,99.90
2022-09-12T09:33:51.820Z,99.90
2022-09-12T09:36:40.009Z,99.90
2022-09-12T09:39:27.382Z,99.90
2022-09-12T09:42:09.163Z,99.90
2022-09-12T09:44:36.817Z,99.90
2022-09-12T09:47:03.790Z,99.90
2022-09-12T09:49:34.047Z,99.90
2022-09-12T09:52:01.652Z,99.90
2022-09-12T09:54:40.779Z,99.90
2022-09-12T09:57:46.707Z,99.90
2022-09-12T10:00:32.035Z,99.90
2022-09-12T10:02:59.160Z,99.90
2022-09-12T10:05:25.973Z,99.90
2022-09-12T10:07:53.147Z,99.90
2022-09-12T10:10:22.783Z,99.90
2022-09-12T10:12:50.217Z,99.90
2022-09-12T10:15:19.840Z,99.90
2022-09-12T10:17:49.404Z,99.90
2022-09-12T10:20:43.373Z,99.90
2022-09-12T10:23:19.734Z,99.90
2022-09-12T10:25:48.461Z,99.90
2022-09-12T10:28:27.225Z,99.90
2022-09-12T10:30:55.956Z,99.90
2022-09-12T10:33:25.620Z,99.90
2022-09-12T10:35:54.542Z,99.90
2022-09-12T10:38:27.602Z,99.90
2022-09-12T10:41:09.826Z,99.90
2022-09-12T10:43:38.638Z,99.90
2022-09-12T10:46:17.837Z,99.90
2022-09-12T10:48:52.809Z,99.90
2022-09-12T10:51:25.121Z,99.90
2022-09-12T10:53:58.154Z,99.90
2022-09-12T10:56:30.665Z,99.90
2022-09-12T10:59:19.930Z,99.90
2022-09-12T11:01:49.296Z,99.90
2022-09-12T11:04:48.333Z,99.90
2022-09-12T11:07:26.688Z,99.90
2022-09-12T11:10:34.322Z,99.90
2022-09-12T11:13:38.423Z,99.90
2022-09-12T11:16:22.884Z,99.90
2022-09-12T11:19:13.711Z,99.90
2022-09-12T11:22:04.129Z,99.90
2022-09-12T11:24:39.867Z,99.90
2022-09-12T11:27:18.894Z,99.90
2022-09-12T11:29:59.122Z,99.90
2022-09-12T11:33:07.776Z,99.90
2022-09-12T11:35:39.380Z,99.90
2022-09-12T11:38:30.959Z,99.90
2022-09-12T11:41:02.418Z,99.90
2022-09-12T11:44:11.515Z,99.90
2022-09-12T11:46:40.694Z,99.90
2022-09-12T11:49:13.395Z,99.90
2022-09-12T11:52:13.514Z,99.90
2022-09-12T11:54:55.653Z,99.90
2022-09-12T11:57:46.803Z,99.90
2022-09-12T12:00:18.684Z,99.90
2022-09-12T12:02:55.282Z,99.90
2022-09-12T12:05:28.631Z,99.90
2022-09-12T12:08:06.151Z,99.90
2022-09-12T12:10:37.588Z,99.90
2022-09-12T12:13:31.192Z,99.90
2022-09-12T12:16:04.133Z,99.90
2022-09-12T12:18:34.141Z,99.90
2022-09-12T12:21:21.258Z,99.90
2022-09-12T12:24:08.993Z,99.90
2022-09-12T12:26:38.802Z,99.90
2022-09-12T12:29:17.447Z,99.90
2022-09-12T12:32:04.187Z,99.90
2022-09-12T12:34:36.677Z,99.90
2022-09-12T12:37:18.780Z,99.90
2022-09-12T12:39:49.793Z,99.90
2022-09-12T12:42:34.891Z,99.90
2022-09-12T12:45:08.532Z,99.90
2022-09-12T12:47:38.309Z,99.90
2022-09-12T12:50:07.835Z,99.90
2022-09-12T12:52:51.863Z,99.90
2022-09-12T12:55:31.186Z,99.90
2022-09-12T12:58:00.711Z,99.90
2022-09-12T13:00:32.606Z,99.90
2022-09-12T13:03:08.131Z,99.90
2022-09-12T13:05:45.158Z,99.90
2022-09-12T13:08:31.597Z,99.90
2022-09-12T13:11:02.947Z,99.90
2022-09-12T13:13:39.753Z,99.90
2022-09-12T13:16:07.581Z,99.90
2022-09-12T13:18:41.603Z,99.90
2022-09-12T13:21:13.286Z,99.90
2022-09-12T13:23:41.206Z,99.90
2022-09-12T13:26:36.202Z,99.90
2022-09-12T13:29:11.566Z,99.90
2022-09-12T13:31:39.003Z,99.90
2022-09-12T13:34:09.521Z,99.90
2022-09-12T13:37:26.316Z,99.90
2022-09-12T13:40:27.423Z,99.90
2022-09-12T13:43:12.533Z,99.90
2022-09-12T13:45:39.675Z,99.90
2022-09-12T13:48:13.158Z,99.60
2022-09-12T13:50:42.678Z,99.60
2022-09-12T13:53:19.086Z,98.20
2022-09-12T13:55:53.809Z,97.60
2022-09-12T13:58:26.901Z,96.70
2022-09-12T14:01:09.818Z,96.30
2022-09-12T14:03:59.948Z,95.80
2022-09-12T14:06:27.648Z,95.40
2022-09-12T14:08:58.582Z,94.40
2022-09-12T14:11:30.539Z,93.80
2022-09-12T14:13:58.550Z,92.80
2022-09-12T14:16:28.897Z,92.30
2022-09-12T14:18:56.070Z,92.10
2022-09-12T14:21:30.436Z,92.30
2022-09-12T14:23:57.905Z,92.20
2022-09-12T14:26:26.968Z,91.90
2022-09-12T14:28:54.459Z,92.30
2022-09-12T14:31:29.123Z,92.40
2022-09-12T14:34:17.763Z,92.10
2022-09-12T14:36:44.550Z,91.60
2022-09-12T14:39:30.328Z,91.40
2022-09-12T14:42:17.470Z,91.20
2022-09-12T14:45:01.545Z,91.90
2022-09-12T14:47:34.867Z,92.30
2022-09-12T14:50:01.984Z,92.70
2022-09-12T14:52:33.023Z,92.10
2022-09-12T14:55:01.401Z,92.20
2022-09-12T14:57:28.129Z,91.80
2022-09-12T15:00:09.457Z,92.90
2022-09-12T15:02:36.549Z,91.90
2022-09-12T15:05:09.680Z,91.60
2022-09-12T15:07:42.607Z,91.10
2022-09-12T15:10:35.019Z,91.30
2022-09-12T15:13:16.589Z,90.60
2022-09-12T15:15:51.198Z,90.30
2022-09-12T15:18:20.100Z,89.00
2022-09-12T15:20:49.679Z,88.10
2022-09-12T15:23:21.056Z,86.60
2022-09-12T15:25:48.206Z,84.60
2022-09-12T15:28:18.667Z,84.10
2022-09-12T15:30:47.692Z,84.40
2022-09-12T15:33:14.511Z,85.40
2022-09-12T15:35:41.717Z,85.70
2022-09-12T15:38:08.487Z,86.40
2022-09-12T15:40:35.257Z,90.10
2022-09-12T15:43:02.334Z,91.50
2022-09-12T15:45:33.906Z,93.00
2022-09-12T15:48:01.333Z,94.30
2022-09-12T15:50:28.185Z,95.00
2022-09-12T15:52:55.892Z,95.60
2022-09-12T15:55:25.930Z,96.30
2022-09-12T15:57:52.686Z,96.10
2022-09-12T16:00:19.818Z,96.50
2022-09-12T16:02:50.262Z,97.30
2022-09-12T16:05:21.006Z,97.20
2022-09-12T16:07:50.668Z,97.90
2022-09-12T16:10:20.188Z,98.00
2022-09-12T16:12:47.147Z,98.20
2022-09-12T16:15:17.522Z,98.60
2022-09-12T16:17:44.290Z,98.90
2022-09-12T16:20:11.588Z,99.20
2022-09-12T16:22:39.191Z,99.20
2022-09-12T16:25:08.066Z,99.60
2022-09-12T16:27:35.965Z,99.70
2022-09-12T16:30:03.729Z,99.90
2022-09-12T16:32:30.451Z,99.90
2022-09-12T16:34:57.205Z,99.90
2022-09-12T16:37:24.364Z,99.90
2022-09-12T16:39:52.278Z,99.90
2022-09-12T16:42:19.339Z,99.90
2022-09-12T16:44:47.094Z,99.90
2022-09-12T16:47:14.820Z,99.90
2022-09-12T16:49:42.017Z,99.90
2022-09-12T16:52:09.784Z,99.90
2022-09-12T16:54:36.747Z,99.90
2022-09-12T16:57:05.214Z,99.90
2022-09-12T16:59:32.254Z,99.90
2022-09-12T17:01:59.211Z,99.90
2022-09-12T17:04:26.171Z,99.90
2022-09-12T17:06:52.958Z,99.90
2022-09-12T17:09:20.215Z,99.90
2022-09-12T17:11:47.829Z,99.90
2022-09-12T17:14:15.938Z,99.90
2022-09-12T17:16:50.821Z,99.90
2022-09-12T17:19:26.675Z,99.90
2022-09-12T17:21:54.415Z,99.90
2022-09-12T17:24:21.365Z,99.90
2022-09-12T17:26:48.202Z,99.90
2022-09-12T17:29:16.376Z,99.90
2022-09-12T17:31:46.981Z,99.90
2022-09-12T17:34:14.462Z,99.90
2022-09-12T17:36:44.373Z,99.90
2022-09-12T17:39:12.781Z,99.90
2022-09-12T17:41:41.660Z,99.90
2022-09-12T17:44:11.433Z,99.90
2022-09-12T17:46:39.211Z,99.90
2022-09-12T17:49:10.623Z,99.90
2022-09-12T17:51:37.939Z,99.90
2022-09-12T17:54:16.918Z,99.90
2022-09-12T17:56:46.976Z,99.90
2022-09-12T17:59:17.353Z,99.90
2022-09-12T18:02:03.163Z,99.90
2022-09-12T18:04:31.218Z,99.90
2022-09-12T18:07:00.316Z,99.90
2022-09-12T18:09:28.351Z,99.90
2022-09-12T18:11:56.169Z,99.90
2022-09-12T18:14:23.962Z,99.90
2022-09-12T18:16:50.873Z,99.90
2022-09-12T18:19:18.616Z,99.90
2022-09-12T18:21:46.053Z,99.90
2022-09-12T18:24:13.396Z,99.90
2022-09-12T18:26:41.366Z,99.90
2022-09-12T18:29:08.446Z,99.90
2022-09-12T18:31:35.962Z,99.90
2022-09-12T18:34:03.317Z,99.90
2022-09-12T18:36:34.829Z,99.90
2022-09-12T18:39:04.090Z,99.90
2022-09-12T18:41:31.267Z,99.90
2022-09-12T18:44:01.249Z,99.90
2022-09-12T18:46:43.865Z,99.90
2022-09-12T18:49:10.903Z,99.90
2022-09-12T18:51:40.223Z,99.90
2022-09-12T18:54:13.063Z,99.90
2022-09-12T18:56:44.095Z,99.90
2022-09-12T18:59:13.982Z,99.90
2022-09-12T19:01:42.067Z,99.90
2022-09-12T19:04:10.875Z,99.90
2022-09-12T19:06:43.526Z,99.90
2022-09-12T19:09:12.345Z,99.90
2022-09-12T19:11:48.471Z,99.90
2022-09-12T19:14:19.776Z,99.90
2022-09-12T19:16:46.848Z,99.90
2022-09-12T19:19:13.597Z,99.90
2022-09-12T19:21:41.939Z,99.90
2022-09-12T19:24:13.559Z,99.90
2022-09-12T19:26:45.614Z,99.90
2022-09-12T19:29:14.251Z,99.90
2022-09-12T19:31:41.071Z,99.90
2022-09-12T19:34:08.262Z,99.90
2022-09-12T19:36:50.916Z,99.90
2022-09-12T19:39:19.578Z,99.90
2022-09-12T19:41:46.649Z,99.90
2022-09-12T19:44:14.438Z,99.90
2022-09-12T19:46:41.634Z,99.90
2022-09-12T19:49:10.272Z,99.90
2022-09-12T19:51:36.981Z,99.90
2022-09-12T19:54:03.846Z,99.90
2022-09-12T19:56:30.881Z,99.90
2022-09-12T19:58:57.706Z,99.90
2022-09-12T20:01:29.347Z,99.90
2022-09-12T20:03:57.688Z,99.90
2022-09-12T20:06:27.520Z,99.90
2022-09-12T20:08:55.103Z,99.90
2022-09-12T20:11:25.038Z,99.90
2022-09-12T20:13:53.275Z,99.90
2022-09-12T20:16:25.810Z,99.90
2022-09-12T20:18:55.401Z,99.90
2022-09-12T20:21:25.258Z,99.90
2022-09-12T20:23:52.522Z,99.90
2022-09-12T20:26:20.221Z,99.90
2022-09-12T20:28:47.684Z,99.90
2022-09-12T20:31:16.069Z,99.90
2022-09-12T20:33:43.980Z,99.90
2022-09-12T20:36:14.234Z,99.90
2022-09-12T20:38:42.202Z,99.90
2022-09-12T20:41:11.198Z,99.90
2022-09-12T20:43:38.595Z,99.90
2022-09-12T20:46:10.260Z,99.90
2022-09-12T20:48:40.064Z,99.90
2022-09-12T20:51:07.418Z,99.90
2022-09-12T20:53:35.364Z,99.90
2022-09-12T20:56:03.736Z,99.90
2022-09-12T20:58:30.873Z,99.90
2022-09-12T21:00:57.600Z,99.90
2022-09-12T21:03:25.488Z,99.90
2022-09-12T21:05:52.607Z,99.90
2022-09-12T21:08:19.344Z,99.90
2022-09-12T21:10:46.136Z,99.90
2022-09-12T21:13:13.683Z,99.90
2022-09-12T21:15:41.472Z,99.90
2022-09-12T21:18:08.323Z,99.90
2022-09-12T21:20:35.696Z,99.90
2022-09-12T21:23:02.918Z,99.90
2022-09-12T21:25:30.320Z,99.90
2022-09-12T21:27:57.206Z,99.90
2022-09-12T21:30:24.138Z,99.90
2022-09-12T21:32:50.951Z,99.90
2022-09-12T21:35:18.367Z,99.90
2022-09-12T21:37:45.194Z,99.90
2022-09-12T21:40:11.909Z,99.90
2022-09-12T21:42:38.766Z,99.90
2022-09-12T21:45:06.188Z,99.90
2022-09-12T21:47:33.000Z,99.90
2022-09-12T21:49:59.810Z,99.90
2022-09-12T21:52:27.485Z,99.90
2022-09-12T21:54:54.185Z,99.90
2022-09-12T21:57:21.375Z,99.90
2022-09-12T21:59:48.095Z,99.90
2022-09-12T22:02:15.901Z,99.90
2022-09-12T22:04:42.942Z,99.90
2022-09-12T22:07:09.635Z,99.90
2022-09-12T22:09:36.511Z,99.90
2022-09-12T22:12:03.470Z,99.90
2022-09-12T22:14:30.505Z,99.90
2022-09-12T22:17:04.113Z,99.90
2022-09-12T22:19:31.193Z,99.90
2022-09-12T22:22:17.216Z,99.90
2022-09-12T22:24:44.021Z,99.90
2022-09-12T22:27:10.799Z,99.90
2022-09-12T22:29:37.658Z,99.90
2022-09-12T22:32:04.654Z,99.90
2022-09-12T22:34:31.688Z,99.90
2022-09-12T22:36:58.487Z,99.90
2022-09-12T22:39:27.612Z,99.90
2022-09-12T22:41:54.944Z,99.90
2022-09-12T22:44:21.624Z,99.90
2022-09-12T22:46:48.409Z,99.90
2022-09-12T22:49:15.492Z,99.90
2022-09-12T22:51:42.406Z,99.90
2022-09-12T22:54:10.107Z,99.90
2022-09-12T22:56:37.093Z,99.90
2022-09-12T22:59:03.948Z,99.90
2022-09-12T23:01:31.866Z,99.90
2022-09-12T23:03:59.178Z,99.90
2022-09-12T23:06:26.151Z,99.90
2022-09-12T23:08:53.004Z,99.90
2022-09-12T23:11:21.414Z,99.90
2022-09-12T23:13:49.928Z,99.90
2022-09-12T23:16:22.714Z,99.90
2022-09-12T23:18:49.859Z,99.90
2022-09-12T23:21:18.572Z,99.90
2022-09-12T23:23:45.946Z,99.90
2022-09-12T23:26:18.543Z,99.90
2022-09-12T23:28:54.091Z,99.90
2022-09-12T23:31:23.025Z,99.90
2022-09-12T23:33:52.899Z,99.90
2022-09-12T23:36:19.841Z,99.90
2022-09-12T23:38:47.011Z,99.90
2022-09-12T23:41:25.017Z,99.90
2022-09-12T23:43:52.084Z,99.90
2022-09-12T23:46:19.909Z,99.90
2022-09-12T23:48:46.781Z,99.90
2022-09-12T23:51:13.768Z,99.90
2022-09-12T23:53:41.261Z,99.90
2022-09-12T23:56:08.453Z,99.90
2022-09-12T23:58:35.286Z,99.90
